createdAt,value
2019-03-01T00:01:13.528Z,100963.83
2019-03-01T00:03:43.422Z,100955.59
2019-03-01T00:06:22.618Z,100964.20
2019-03-01T00:09:27.092Z,100959.42
2019-03-01T00:12:41.160Z,100962.87
2019-03-01T00:15:23.894Z,100960.97
2019-03-01T00:18:36.386Z,100962.06
2019-03-01T00:21:52.846Z,100960.70
2019-03-01T00:24:36.316Z,100972.45
2019-03-01T00:27:44.288Z,100973.59
2019-03-01T00:30:58.595Z,100969.83
2019-03-01T00:34:07.352Z,100963.06
2019-03-01T00:37:18.266Z,100969.86
2019-03-01T00:40:12.951Z,100966.99
2019-03-01T00:43:07.594Z,100968.19
2019-03-01T00:45:37.783Z,100973.01
2019-03-01T00:48:07.546Z,100974.23
2019-03-01T00:50:37.326Z,100964.67
2019-03-01T00:53:06.990Z,100976.16
2019-03-01T00:55:36.614Z,100974.64
2019-03-01T00:58:06.336Z,100967.16
2019-03-01T01:00:40.241Z,100959.75
2019-03-01T01:03:09.899Z,100959.27
2019-03-01T01:05:39.634Z,100960.13
2019-03-01T01:08:09.290Z,100963.27
2019-03-01T01:10:39.028Z,100964.56
2019-03-01T01:13:08.598Z,100963.44
2019-03-01T01:15:38.186Z,100965.38
2019-03-01T01:18:08.257Z,100970.02
2019-03-01T01:20:37.900Z,100965.16
2019-03-01T01:23:07.473Z,100962.67
2019-03-01T01:25:37.535Z,100966.12
2019-03-01T01:28:07.378Z,100969.91
2019-03-01T01:30:36.989Z,100970.28
2019-03-01T01:33:06.882Z,100962.50
2019-03-01T01:35:36.899Z,100965.80
2019-03-01T01:38:06.514Z,100959.83
2019-03-01T01:40:36.437Z,100954.70
2019-03-01T01:43:06.141Z,100952.97
2019-03-01T01:45:35.764Z,100949.52
2019-03-01T01:48:05.517Z,100949.82
2019-03-01T01:50:35.176Z,100952.92
2019-03-01T01:53:04.770Z,100950.34
2019-03-01T01:55:35.010Z,100952.11
2019-03-01T01:58:04.561Z,100956.92
2019-03-01T02:00:34.268Z,100952.56
2019-03-01T02:03:04.219Z,100957.48
2019-03-01T02:05:33.895Z,100948.77
2019-03-01T02:08:03.658Z,100954.06
2019-03-01T02:10:33.677Z,100952.28
2019-03-01T02:13:03.512Z,100953.96
2019-03-01T02:15:33.171Z,100946.58
2019-03-01T02:18:02.959Z,100948.29
2019-03-01T02:20:33.848Z,100947.88
2019-03-01T02:23:03.701Z,100946.17
2019-03-01T02:25:33.588Z,100950.44
2019-03-01T02:28:03.257Z,100955.16
2019-03-01T02:30:33.305Z,100956.34
2019-03-01T02:33:03.119Z,100955.42
2019-03-01T02:35:33.043Z,100958.13
2019-03-01T02:38:02.671Z,100953.92
2019-03-01T02:40:35.929Z,100957.19
2019-03-01T02:43:06.018Z,100958.98
2019-03-01T02:45:35.657Z,100961.92
2019-03-01T02:48:05.596Z,100961.06
2019-03-01T02:50:35.197Z,100963.55
2019-03-01T02:53:05.681Z,100971.26
2019-03-01T02:55:35.498Z,100967.81
2019-03-01T02:58:05.068Z,100967.70
2019-03-01T03:00:34.828Z,100973.66
2019-03-01T03:03:04.699Z,100971.78
2019-03-01T03:05:37.125Z,100970.45
2019-03-01T03:08:08.144Z,100968.22
2019-03-01T03:10:37.818Z,100961.73
2019-03-01T03:13:09.667Z,100965.63
2019-03-01T03:15:44.727Z,100974.59
2019-03-01T03:18:14.530Z,100972.99
2019-03-01T03:20:44.141Z,100972.39
2019-03-01T03:23:13.670Z,100978.06
2019-03-01T03:25:43.641Z,100984.06
2019-03-01T03:28:13.365Z,100978.95
2019-03-01T03:30:42.892Z,100979.92
2019-03-01T03:33:12.606Z,100978.55
2019-03-01T03:35:42.239Z,100979.47
2019-03-01T03:38:11.901Z,100979.00
2019-03-01T03:40:41.836Z,100980.70
2019-03-01T03:43:11.469Z,100977.44
2019-03-01T03:45:41.187Z,100984.30
2019-03-01T03:48:10.965Z,100976.52
2019-03-01T03:50:40.759Z,100981.81
2019-03-01T03:53:10.397Z,100979.11
2019-03-01T03:55:40.275Z,100982.63
2019-03-01T03:58:09.867Z,100982.63
2019-03-01T04:00:39.502Z,100985.22
2019-03-01T04:03:09.125Z,100987.00
2019-03-01T04:05:38.706Z,100980.11
2019-03-01T04:08:08.621Z,100987.03
2019-03-01T04:10:38.407Z,100992.27
2019-03-01T04:13:08.059Z,100992.36
2019-03-01T04:15:37.999Z,100997.72
2019-03-01T04:18:07.923Z,100992.89
2019-03-01T04:20:37.769Z,100995.85
2019-03-01T04:23:07.487Z,100991.48
2019-03-01T04:25:37.222Z,100988.69
2019-03-01T04:28:06.858Z,100991.28
2019-03-01T04:30:36.552Z,100995.41
2019-03-01T04:33:06.293Z,100994.80
2019-03-01T04:35:35.970Z,100990.11
2019-03-01T04:38:05.598Z,100999.05
2019-03-01T04:40:35.308Z,101010.79
2019-03-01T04:43:04.951Z,101015.38
2019-03-01T04:45:34.752Z,101024.00
2019-03-01T04:48:04.461Z,101025.95
2019-03-01T04:50:34.155Z,101025.17
2019-03-01T04:53:03.770Z,101027.89
2019-03-01T04:55:33.679Z,101033.88
2019-03-01T04:58:03.439Z,101036.59
2019-03-01T05:00:33.052Z,101038.83
2019-03-01T05:03:02.712Z,101029.83
2019-03-01T05:05:32.659Z,101027.03
2019-03-01T05:08:02.545Z,101028.33
2019-03-01T05:10:32.671Z,101027.60
2019-03-01T05:13:02.555Z,101022.42
2019-03-01T05:15:32.478Z,101019.25
2019-03-01T05:18:02.521Z,101018.03
2019-03-01T05:20:32.253Z,101014.33
2019-03-01T05:23:01.925Z,101016.15
2019-03-01T05:25:31.625Z,101023.76
2019-03-01T05:28:01.567Z,101030.36
2019-03-01T05:30:31.524Z,101048.52
2019-03-01T05:33:01.796Z,101033.06
2019-03-01T05:35:31.616Z,101038.22
2019-03-01T05:38:01.435Z,101021.36
2019-03-01T05:40:31.209Z,101015.73
2019-03-01T05:43:01.218Z,101000.78
2019-03-01T05:45:31.159Z,101023.92
2019-03-01T05:48:01.389Z,101025.14
2019-03-01T05:50:31.315Z,101025.22
2019-03-01T05:53:01.305Z,101029.12
2019-03-01T05:55:34.272Z,101038.02
2019-03-01T05:58:38.110Z,101044.91
2019-03-01T06:01:12.049Z,101057.83
2019-03-01T06:04:23.765Z,101049.52
2019-03-01T06:07:31.398Z,101055.64
2019-03-01T06:10:37.474Z,101047.08
2019-03-01T06:13:58.692Z,101048.83
2019-03-01T06:17:06.283Z,101042.94
2019-03-01T06:19:56.561Z,101057.77
2019-03-01T06:23:12.717Z,101065.67
2019-03-01T06:26:38.242Z,101075.16
2019-03-01T06:29:53.422Z,101070.13
2019-03-01T06:33:00.226Z,101081.55
2019-03-01T06:35:45.302Z,101091.23
2019-03-01T06:39:13.732Z,101102.05
2019-03-01T06:42:24.096Z,101094.86
2019-03-01T06:45:43.569Z,101100.12
2019-03-01T06:48:18.972Z,101103.88
2019-03-01T06:50:55.400Z,101114.53
2019-03-01T06:53:25.000Z,101124.25
2019-03-01T06:56:00.846Z,101119.36
2019-03-01T06:58:50.798Z,101117.69
2019-03-01T07:01:36.970Z,101120.50
2019-03-01T07:04:16.126Z,101124.14
2019-03-01T07:06:46.215Z,101125.28
2019-03-01T07:09:15.907Z,101129.73
2019-03-01T07:11:45.751Z,101136.18
2019-03-01T07:14:15.526Z,101144.69
2019-03-01T07:16:45.133Z,101143.87
2019-03-01T07:19:14.788Z,101145.97
2019-03-01T07:21:44.492Z,101143.34
2019-03-01T07:24:14.223Z,101142.48
2019-03-01T07:26:43.964Z,101140.73
2019-03-01T07:29:13.730Z,101151.24
2019-03-01T07:31:43.451Z,101158.19
2019-03-01T07:34:13.226Z,101156.61
2019-03-01T07:36:42.989Z,101162.84
2019-03-01T07:39:12.752Z,101156.59
2019-03-01T07:41:42.608Z,101149.41
2019-03-01T07:44:12.645Z,101158.55
2019-03-01T07:46:52.338Z,101161.56
2019-03-01T07:49:13.752Z,101165.39
2019-03-01T07:51:43.401Z,101165.73
2019-03-01T07:54:13.293Z,101170.11
2019-03-01T07:56:44.487Z,101170.00
2019-03-01T07:59:14.086Z,101180.47
2019-03-01T08:01:43.847Z,101183.86
2019-03-01T08:04:13.609Z,101176.98
2019-03-01T08:06:45.631Z,101175.20
2019-03-01T08:09:15.247Z,101176.98
2019-03-01T08:11:44.987Z,101178.45
2019-03-01T08:14:14.812Z,101173.95
2019-03-01T08:16:44.563Z,101178.94
2019-03-01T08:19:17.069Z,101187.23
2019-03-01T08:21:49.568Z,101183.88
2019-03-01T08:24:17.278Z,101194.38
2019-03-01T08:26:47.102Z,101191.02
2019-03-01T08:29:16.659Z,101193.34
2019-03-01T08:31:46.410Z,101196.53
2019-03-01T08:34:17.793Z,101198.48
2019-03-01T08:36:47.467Z,101206.55
2019-03-01T08:39:17.400Z,101206.84
2019-03-01T08:41:47.210Z,101212.31
2019-03-01T08:44:19.329Z,101211.84
2019-03-01T08:46:48.388Z,101208.73
2019-03-01T08:49:17.946Z,101212.31
2019-03-01T08:51:47.699Z,101208.83
2019-03-01T08:54:17.449Z,101207.42
2019-03-01T08:56:50.280Z,101197.59
2019-03-01T08:59:18.768Z,101197.33
2019-03-01T09:01:48.342Z,101200.03
2019-03-01T09:04:21.407Z,101199.29
2019-03-01T09:06:50.123Z,101201.95
2019-03-01T09:09:21.007Z,101206.06
2019-03-01T09:11:51.210Z,101215.84
2019-03-01T09:14:22.654Z,101217.55
2019-03-01T09:16:52.773Z,101216.85
2019-03-01T09:19:25.427Z,101221.23
2019-03-01T09:21:53.750Z,101222.23
2019-03-01T09:24:25.781Z,101220.94
2019-03-01T09:26:55.994Z,101211.95
2019-03-01T09:29:25.967Z,101226.37
2019-03-01T09:31:57.869Z,101223.37
2019-03-01T09:34:28.686Z,101232.98
2019-03-01T09:36:59.234Z,101232.98
2019-03-01T09:39:28.971Z,101224.93
2019-03-01T09:42:03.305Z,101231.25
2019-03-01T09:44:30.435Z,101218.91
2019-03-01T09:47:01.749Z,101229.52
2019-03-01T09:49:31.786Z,101231.02
2019-03-01T09:52:01.682Z,101238.33
2019-03-01T09:54:31.568Z,101246.78
2019-03-01T09:57:01.500Z,101233.47
2019-03-01T09:59:31.338Z,101235.21
2019-03-01T10:02:00.993Z,101239.75
2019-03-01T10:04:30.905Z,101238.45
2019-03-01T10:07:00.580Z,101238.75
2019-03-01T10:09:30.313Z,101237.49
2019-03-01T10:12:00.535Z,101246.91
2019-03-01T10:14:30.284Z,101251.03
2019-03-01T10:17:00.013Z,101256.84
2019-03-01T10:19:30.173Z,101261.98
2019-03-01T10:22:00.170Z,101262.72
2019-03-01T10:24:29.974Z,101266.17
2019-03-01T10:26:59.905Z,101266.17
2019-03-01T10:29:29.801Z,101265.33
2019-03-01T10:31:59.580Z,101272.84
2019-03-01T10:34:29.366Z,101276.95
2019-03-01T10:36:59.056Z,101282.39
2019-03-01T10:39:28.854Z,101274.41
2019-03-01T10:41:58.651Z,101271.95
2019-03-01T10:44:28.452Z,101281.09
2019-03-01T10:46:59.545Z,101275.47
2019-03-01T10:49:29.376Z,101282.23
2019-03-01T10:51:59.356Z,101283.95
2019-03-01T10:54:29.203Z,101283.95
2019-03-01T10:56:59.042Z,101293.17
2019-03-01T10:59:28.813Z,101293.17
2019-03-01T11:01:58.586Z,101287.00
2019-03-01T11:04:28.518Z,101289.28
2019-03-01T11:06:58.412Z,101298.84
2019-03-01T11:09:28.186Z,101299.33
2019-03-01T11:11:58.002Z,101300.79
2019-03-01T11:14:27.903Z,101298.17
2019-03-01T11:16:57.742Z,101302.56
2019-03-01T11:19:27.770Z,101306.73
2019-03-01T11:21:57.516Z,101302.08
2019-03-01T11:24:27.406Z,101300.84
2019-03-01T11:26:57.206Z,101300.84
2019-03-01T11:29:26.970Z,101294.16
2019-03-01T11:31:56.613Z,101295.44
2019-03-01T11:34:26.458Z,101295.44
2019-03-01T11:36:56.234Z,101299.83
2019-03-01T11:39:26.136Z,101299.02
2019-03-01T11:41:55.956Z,101290.55
2019-03-01T11:44:25.552Z,101299.98
2019-03-01T11:46:55.224Z,101289.86
2019-03-01T11:49:25.034Z,101289.86
2019-03-01T11:51:54.640Z,101286.43
2019-03-01T11:54:24.321Z,101287.45
2019-03-01T11:56:54.176Z,101287.45
2019-03-01T11:59:23.832Z,101286.98
2019-03-01T12:01:53.473Z,101284.92
2019-03-01T12:04:23.288Z,101283.67
2019-03-01T12:06:52.848Z,101279.17
2019-03-01T12:09:22.463Z,101284.41
2019-03-01T12:11:52.261Z,101287.91
2019-03-01T12:14:22.388Z,101280.95
2019-03-01T12:16:52.071Z,101273.20
2019-03-01T12:19:21.992Z,101273.20
2019-03-01T12:21:51.552Z,101280.13
2019-03-01T12:24:21.197Z,101283.58
2019-03-01T12:26:51.045Z,101290.65
2019-03-01T12:29:20.623Z,101287.61
2019-03-01T12:31:50.244Z,101292.91
2019-03-01T12:34:20.089Z,101289.81
2019-03-01T12:36:49.715Z,101286.30
2019-03-01T12:39:19.431Z,101291.07
2019-03-01T12:41:49.052Z,101295.48
2019-03-01T12:44:18.697Z,101297.13
2019-03-01T12:46:48.365Z,101294.17
2019-03-01T12:49:18.187Z,101291.66
2019-03-01T12:51:47.739Z,101291.66
2019-03-01T12:54:17.369Z,101298.22
2019-03-01T12:56:47.206Z,101301.32
2019-03-01T12:59:16.803Z,101306.56
2019-03-01T13:01:46.520Z,101296.50
2019-03-01T13:04:18.680Z,101294.17
2019-03-01T13:06:48.745Z,101296.85
2019-03-01T13:09:55.252Z,101298.16
2019-03-01T13:12:26.084Z,101301.66
2019-03-01T13:14:56.460Z,101291.72
2019-03-01T13:17:26.055Z,101303.97
2019-03-01T13:19:57.596Z,101297.37
2019-03-01T13:22:27.913Z,101295.63
2019-03-01T13:24:58.357Z,101298.73
2019-03-01T13:27:28.169Z,101297.84
2019-03-01T13:29:58.767Z,101295.75
2019-03-01T13:32:29.548Z,101296.72
2019-03-01T13:34:59.248Z,101296.72
2019-03-01T13:37:28.961Z,101294.05
2019-03-01T13:39:58.579Z,101298.33
2019-03-01T13:42:28.198Z,101294.75
2019-03-01T13:44:57.923Z,101302.95
2019-03-01T13:47:28.021Z,101298.67
2019-03-01T13:49:57.770Z,101291.41
2019-03-01T13:52:29.969Z,101299.28
2019-03-01T13:54:59.424Z,101299.69
2019-03-01T13:57:29.209Z,101297.37
2019-03-01T13:59:58.932Z,101299.97
2019-03-01T14:02:28.771Z,101299.97
2019-03-01T14:04:58.532Z,101319.91
2019-03-01T14:07:28.100Z,101325.15
2019-03-01T14:10:00.815Z,101319.89
2019-03-01T14:12:29.441Z,101322.50
2019-03-01T14:15:03.039Z,101317.70
2019-03-01T14:17:31.268Z,101317.63
2019-03-01T14:20:01.532Z,101314.87
2019-03-01T14:22:31.378Z,101314.47
2019-03-01T14:25:02.441Z,101305.83
2019-03-01T14:27:32.902Z,101311.56
2019-03-01T14:30:02.674Z,101312.05
2019-03-01T14:32:32.234Z,101315.64
2019-03-01T14:35:02.103Z,101317.70
2019-03-01T14:37:31.790Z,101314.20
2019-03-01T14:40:01.497Z,101317.14
2019-03-01T14:42:31.463Z,101315.77
2019-03-01T14:45:01.269Z,101314.41
2019-03-01T14:47:32.725Z,101310.39
2019-03-01T14:50:02.715Z,101310.80
2019-03-01T14:52:33.427Z,101311.97
2019-03-01T14:55:03.387Z,101314.09
2019-03-01T14:57:36.700Z,101326.55
2019-03-01T15:00:20.299Z,101326.55
2019-03-01T15:03:16.494Z,101325.17
2019-03-01T15:05:46.089Z,101336.47
2019-03-01T15:08:15.695Z,101328.53
2019-03-01T15:10:45.340Z,101334.17
2019-03-01T15:13:15.166Z,101334.94
2019-03-01T15:15:45.103Z,101338.77
2019-03-01T15:18:14.774Z,101338.77
2019-03-01T15:20:44.654Z,101340.50
2019-03-01T15:23:15.110Z,101337.78
2019-03-01T15:25:48.573Z,101337.78
2019-03-01T15:28:17.878Z,101336.88
2019-03-01T15:30:47.676Z,101342.03
2019-03-01T15:33:17.267Z,101339.35
2019-03-01T15:35:47.094Z,101341.45
2019-03-01T15:38:16.992Z,101350.46
2019-03-01T15:40:46.577Z,101350.46
2019-03-01T15:43:16.321Z,101354.69
2019-03-01T15:45:46.242Z,101347.98
2019-03-01T15:48:15.875Z,101347.98
2019-03-01T15:50:45.544Z,101352.74
2019-03-01T15:53:15.251Z,101352.74
2019-03-01T15:55:44.965Z,101351.33
2019-03-01T15:58:14.632Z,101351.33
2019-03-01T16:00:44.350Z,101358.59
2019-03-01T16:03:14.131Z,101358.57
2019-03-01T16:05:43.887Z,101356.72
2019-03-01T16:08:13.750Z,101361.82
2019-03-01T16:10:43.327Z,101361.82
2019-03-01T16:13:13.322Z,101364.88
2019-03-01T16:15:43.156Z,101367.70
2019-03-01T16:18:12.978Z,101367.70
2019-03-01T16:20:42.668Z,101365.91
2019-03-01T16:23:12.362Z,101376.35
2019-03-01T16:25:42.074Z,101384.11
2019-03-01T16:28:11.729Z,101384.11
2019-03-01T16:30:41.558Z,101386.20
2019-03-01T16:33:11.184Z,101382.28
2019-03-01T16:35:40.965Z,101382.28
2019-03-01T16:38:10.671Z,101392.20
2019-03-01T16:40:40.301Z,101392.20
2019-03-01T16:43:10.053Z,101386.42
2019-03-01T16:45:45.842Z,101389.52
2019-03-01T16:48:16.885Z,101388.20
2019-03-01T16:50:47.270Z,101388.20
2019-03-01T16:53:16.949Z,101390.82
2019-03-01T16:55:46.712Z,101386.91
2019-03-01T16:58:16.348Z,101386.91
2019-03-01T17:00:46.221Z,101386.91
2019-03-01T17:03:17.998Z,101384.73
2019-03-01T17:05:47.717Z,101384.73
2019-03-01T17:08:17.572Z,101391.81
2019-03-01T17:10:47.436Z,101391.81
2019-03-01T17:13:17.459Z,101396.13
2019-03-01T17:15:48.446Z,101404.31
2019-03-01T17:18:19.675Z,101390.66
2019-03-01T17:20:49.499Z,101398.57
2019-03-01T17:23:19.226Z,101402.96
2019-03-01T17:25:49.083Z,101405.23
2019-03-01T17:28:23.641Z,101412.24
2019-03-01T17:31:08.459Z,101412.24
2019-03-01T17:33:38.142Z,101413.94
2019-03-01T17:36:07.871Z,101414.47
2019-03-01T17:38:43.493Z,101414.47
2019-03-01T17:41:10.783Z,101416.55
2019-03-01T17:43:40.785Z,101415.27
2019-03-01T17:46:10.616Z,101423.27
2019-03-01T17:48:40.330Z,101424.55
2019-03-01T17:51:10.383Z,101416.78
2019-03-01T17:53:43.048Z,101416.78
2019-03-01T17:56:11.637Z,101423.37
2019-03-01T17:58:41.226Z,101419.30
2019-03-01T18:01:10.872Z,101422.02
2019-03-01T18:03:40.724Z,101424.42
2019-03-01T18:06:13.026Z,101424.20
2019-03-01T18:08:42.445Z,101417.33
2019-03-01T18:11:12.300Z,101423.28
2019-03-01T18:13:42.074Z,101422.36
2019-03-01T18:16:12.000Z,101420.80
2019-03-01T18:18:42.560Z,101420.90
2019-03-01T18:21:13.126Z,101424.14
2019-03-01T18:23:43.817Z,101427.48
2019-03-01T18:26:13.526Z,101421.99
2019-03-01T18:28:43.314Z,101431.88
2019-03-01T18:31:13.126Z,101431.88
2019-03-01T18:33:42.824Z,101438.08
2019-03-01T18:36:12.613Z,101431.77
2019-03-01T18:38:42.483Z,101429.27
2019-03-01T18:41:12.392Z,101431.36
2019-03-01T18:43:42.081Z,101429.16
2019-03-01T18:46:14.626Z,101433.30
2019-03-01T18:48:44.661Z,101432.91
2019-03-01T18:51:14.945Z,101429.67
2019-03-01T18:53:45.563Z,101435.52
2019-03-01T18:56:15.437Z,101425.92
2019-03-01T18:58:48.864Z,101429.57
2019-03-01T19:01:17.043Z,101429.38
2019-03-01T19:03:46.902Z,101415.52
2019-03-01T19:06:17.234Z,101423.39
2019-03-01T19:08:46.980Z,101420.05
2019-03-01T19:11:16.781Z,101416.03
2019-03-01T19:13:46.484Z,101413.80
2019-03-01T19:16:16.721Z,101417.66
2019-03-01T19:18:48.211Z,101416.21
2019-03-01T19:21:18.390Z,101408.95
2019-03-01T19:23:49.381Z,101412.33
2019-03-01T19:26:19.115Z,101406.08
2019-03-01T19:28:48.711Z,101412.02
2019-03-01T19:31:21.686Z,101414.98
2019-03-01T19:33:50.035Z,101417.92
2019-03-01T19:36:20.137Z,101411.66
2019-03-01T19:38:49.910Z,101411.62
2019-03-01T19:41:20.041Z,101418.77
2019-03-01T19:43:57.361Z,101410.14
2019-03-01T19:46:23.048Z,101416.13
2019-03-01T19:48:53.024Z,101421.05
2019-03-01T19:51:22.922Z,101416.36
2019-03-01T19:53:52.587Z,101418.19
2019-03-01T19:56:25.788Z,101416.03
2019-03-01T19:58:54.169Z,101419.23
2019-03-01T20:01:23.999Z,101419.12
2019-03-01T20:03:53.701Z,101417.81
2019-03-01T20:06:23.693Z,101409.64
2019-03-01T20:08:53.496Z,101413.88
2019-03-01T20:11:26.390Z,101409.73
2019-03-01T20:13:54.799Z,101410.12
2019-03-01T20:16:24.528Z,101409.42
2019-03-01T20:18:54.285Z,101414.98
2019-03-01T20:21:24.327Z,101411.24
2019-03-01T20:23:54.126Z,101417.90
2019-03-01T20:26:26.627Z,101418.89
2019-03-01T20:28:55.281Z,101413.57
2019-03-01T20:31:24.916Z,101407.41
2019-03-01T20:33:54.644Z,101411.63
2019-03-01T20:36:24.667Z,101413.66
2019-03-01T20:38:54.336Z,101415.89
2019-03-01T20:41:23.907Z,101417.55
2019-03-01T20:43:53.734Z,101413.37
2019-03-01T20:46:24.468Z,101407.77
2019-03-01T20:48:54.196Z,101406.98
2019-03-01T20:51:26.970Z,101416.36
2019-03-01T20:53:55.368Z,101403.58
2019-03-01T20:56:25.343Z,101402.32
2019-03-01T20:58:54.951Z,101391.70
2019-03-01T21:01:24.552Z,101402.08
2019-03-01T21:03:54.294Z,101397.61
2019-03-01T21:06:24.091Z,101403.52
2019-03-01T21:08:53.723Z,101399.22
2019-03-01T21:11:25.389Z,101394.52
2019-03-01T21:13:54.853Z,101396.48
2019-03-01T21:16:24.937Z,101394.41
2019-03-01T21:18:54.622Z,101398.11
2019-03-01T21:21:25.527Z,101394.74
2019-03-01T21:23:55.758Z,101393.08
2019-03-01T21:26:25.354Z,101394.98
2019-03-01T21:28:55.105Z,101391.17
2019-03-01T21:31:24.901Z,101386.20
2019-03-01T21:33:54.548Z,101387.11
2019-03-01T21:36:26.217Z,101387.70
2019-03-01T21:38:55.674Z,101386.03
2019-03-01T21:41:26.676Z,101380.36
2019-03-01T21:43:56.491Z,101388.95
2019-03-01T21:46:26.118Z,101389.89
2019-03-01T21:48:56.749Z,101386.09
2019-03-01T21:51:27.654Z,101389.27
2019-03-01T21:53:57.383Z,101394.91
2019-03-01T21:56:27.204Z,101396.19
2019-03-01T21:58:57.216Z,101395.11
2019-03-01T22:01:26.954Z,101390.59
2019-03-01T22:03:59.302Z,101391.38
2019-03-01T22:06:28.251Z,101402.61
2019-03-01T22:08:58.083Z,101393.44
2019-03-01T22:11:27.733Z,101394.59
2019-03-01T22:13:57.530Z,101401.89
2019-03-01T22:16:27.286Z,101403.89
2019-03-01T22:18:58.627Z,101394.81
2019-03-01T22:21:28.488Z,101396.70
2019-03-01T22:23:58.395Z,101397.80
2019-03-01T22:26:28.102Z,101398.70
2019-03-01T22:28:58.022Z,101404.83
2019-03-01T22:31:27.720Z,101393.52
2019-03-01T22:33:57.358Z,101387.70
2019-03-01T22:36:27.282Z,101391.34
2019-03-01T22:38:57.228Z,101382.68
2019-03-01T22:41:26.933Z,101386.03
2019-03-01T22:43:58.340Z,101391.21
2019-03-01T22:46:28.369Z,101385.08
2019-03-01T22:48:58.132Z,101384.00
2019-03-01T22:51:27.885Z,101389.53
2019-03-01T22:53:57.873Z,101382.10
2019-03-01T22:56:27.722Z,101385.64
2019-03-01T22:58:57.361Z,101381.86
2019-03-01T23:01:35.584Z,101384.30
2019-03-01T23:04:06.713Z,101381.42
2019-03-01T23:06:36.647Z,101380.14
2019-03-01T23:09:10.746Z,101372.71
2019-03-01T23:11:40.997Z,101375.02
2019-03-01T23:14:10.745Z,101372.47
2019-03-01T23:16:40.579Z,101374.40
2019-03-01T23:19:12.750Z,101376.11
2019-03-01T23:21:43.280Z,101381.30
2019-03-01T23:24:13.136Z,101381.75
2019-03-01T23:26:42.710Z,101374.86
2019-03-01T23:29:12.339Z,101383.61
2019-03-01T23:31:42.477Z,101377.53
2019-03-01T23:34:12.719Z,101378.14
2019-03-01T23:36:42.278Z,101377.86
2019-03-01T23:39:12.037Z,101382.09
2019-03-01T23:41:43.467Z,101213.22
2019-03-01T23:44:13.303Z,101378.27
2019-03-01T23:46:42.959Z,101368.81
2019-03-01T23:49:12.618Z,101373.23
2019-03-01T23:51:45.217Z,101368.95
2019-03-01T23:54:13.780Z,101369.00
2019-03-01T23:56:43.790Z,101362.39
2019-03-01T23:59:13.500Z,101360.67
